createdAt,value
2019-05-01T00:02:19.841Z,99.90
2019-05-01T00:05:03.209Z,99.90
2019-05-01T00:07:36.280Z,99.90
2019-05-01T00:10:06.531Z,99.90
2019-05-01T00:12:35.488Z,99.90
2019-05-01T00:15:04.589Z,99.90
2019-05-01T00:17:33.914Z,99.90
2019-05-01T00:20:03.106Z,99.90
2019-05-01T00:22:32.361Z,99.90
2019-05-01T00:25:01.615Z,99.90
2019-05-01T00:27:30.612Z,99.90
2019-05-01T00:29:59.810Z,99.90
2019-05-01T00:32:29.201Z,99.90
2019-05-01T00:34:58.437Z,99.90
2019-05-01T00:37:27.289Z,99.90
2019-05-01T00:39:56.129Z,99.90
2019-05-01T00:42:25.283Z,99.90
2019-05-01T00:44:54.132Z,99.90
2019-05-01T00:47:22.973Z,99.90
2019-05-01T00:49:51.901Z,99.90
2019-05-01T00:52:21.149Z,99.90
2019-05-01T00:54:51.797Z,99.90
2019-05-01T00:57:30.816Z,99.90
2019-05-01T01:00:18.804Z,99.90
2019-05-01T01:02:51.118Z,99.90
2019-05-01T01:05:20.322Z,99.90
2019-05-01T01:07:49.549Z,99.90
2019-05-01T01:10:18.390Z,99.90
2019-05-01T01:12:47.229Z,99.90
2019-05-01T01:15:16.325Z,99.90
2019-05-01T01:17:45.505Z,99.90
2019-05-01T01:20:14.601Z,99.90
2019-05-01T01:22:43.524Z,99.90
2019-05-01T01:25:12.513Z,99.90
2019-05-01T01:27:41.597Z,99.90
2019-05-01T01:30:10.917Z,99.90
2019-05-01T01:32:39.991Z,99.90
2019-05-01T01:35:09.267Z,99.90
2019-05-01T01:37:38.173Z,99.90
2019-05-01T01:40:07.300Z,99.90
2019-05-01T01:42:36.693Z,99.90
2019-05-01T01:45:23.841Z,99.90
2019-05-01T01:48:12.709Z,99.90
2019-05-01T01:50:44.167Z,99.90
2019-05-01T01:53:16.148Z,99.90
2019-05-01T01:55:46.216Z,99.90
2019-05-01T01:58:16.384Z,99.90
2019-05-01T02:01:09.723Z,99.90
2019-05-01T02:03:41.516Z,99.90
2019-05-01T02:06:10.813Z,99.90
2019-05-01T02:08:39.998Z,99.90
2019-05-01T02:11:09.256Z,99.90
2019-05-01T02:13:38.443Z,99.90
2019-05-01T02:16:07.833Z,99.90
2019-05-01T02:18:36.893Z,99.90
2019-05-01T02:21:06.005Z,99.90
2019-05-01T02:23:34.917Z,99.90
2019-05-01T02:26:04.409Z,99.90
2019-05-01T02:28:49.261Z,99.90
2019-05-01T02:31:31.020Z,99.90
2019-05-01T02:34:01.919Z,99.90
2019-05-01T02:36:31.616Z,99.90
2019-05-01T02:39:01.114Z,99.90
2019-05-01T02:41:36.639Z,99.90
2019-05-01T02:44:14.802Z,99.90
2019-05-01T02:46:46.393Z,99.90
2019-05-01T02:49:25.159Z,99.90
2019-05-01T02:51:54.753Z,99.90
2019-05-01T02:54:23.737Z,99.90
2019-05-01T02:56:58.527Z,99.90
2019-05-01T02:59:30.714Z,99.90
2019-05-01T03:02:01.686Z,99.90
2019-05-01T03:04:31.468Z,99.90
2019-05-01T03:07:01.694Z,99.90
2019-05-01T03:09:31.517Z,99.90
2019-05-01T03:12:02.425Z,99.90
2019-05-01T03:14:34.345Z,99.90
2019-05-01T03:17:07.024Z,99.90
2019-05-01T03:20:07.279Z,99.90
2019-05-01T03:22:47.963Z,99.90
2019-05-01T03:25:18.425Z,99.90
2019-05-01T03:27:48.244Z,99.90
2019-05-01T03:30:17.243Z,99.90
2019-05-01T03:32:46.239Z,99.90
2019-05-01T03:35:15.333Z,99.90
2019-05-01T03:37:44.388Z,99.90
2019-05-01T03:40:13.815Z,99.90
2019-05-01T03:42:42.902Z,99.90
2019-05-01T03:45:12.194Z,99.90
2019-05-01T03:47:42.257Z,99.90
2019-05-01T03:50:11.237Z,99.90
2019-05-01T03:52:40.237Z,99.90
2019-05-01T03:55:09.351Z,99.90
2019-05-01T03:57:38.376Z,99.90
2019-05-01T04:00:09.062Z,99.90
2019-05-01T04:02:49.430Z,99.90
2019-05-01T04:05:18.819Z,99.90
2019-05-01T04:07:48.421Z,99.90
2019-05-01T04:10:17.810Z,99.90
2019-05-01T04:12:47.229Z,99.90
2019-05-01T04:15:16.332Z,99.90
2019-05-01T04:17:50.357Z,99.90
2019-05-01T04:20:19.713Z,99.90
2019-05-01T04:22:48.905Z,99.90
2019-05-01T04:25:17.987Z,99.90
2019-05-01T04:27:49.002Z,99.90
2019-05-01T04:30:33.513Z,99.90
2019-05-01T04:33:05.702Z,99.90
2019-05-01T04:35:51.904Z,99.90
2019-05-01T04:38:20.926Z,99.90
2019-05-01T04:40:49.989Z,99.90
2019-05-01T04:43:19.733Z,99.90
2019-05-01T04:45:48.909Z,99.90
2019-05-01T04:48:18.808Z,99.90
2019-05-01T04:50:48.321Z,99.90
2019-05-01T04:53:18.300Z,99.90
2019-05-01T04:55:47.601Z,99.90
2019-05-01T04:58:16.901Z,99.90
2019-05-01T05:00:45.822Z,99.90
2019-05-01T05:03:17.952Z,99.90
2019-05-01T05:05:47.636Z,99.90
2019-05-01T05:08:16.901Z,99.90
2019-05-01T05:10:47.245Z,99.90
2019-05-01T05:13:24.760Z,99.90
2019-05-01T05:16:15.871Z,99.90
2019-05-01T05:18:45.072Z,99.90
2019-05-01T05:21:13.995Z,99.90
2019-05-01T05:23:42.993Z,99.90
2019-05-01T05:26:13.082Z,99.90
2019-05-01T05:28:43.547Z,99.90
2019-05-01T05:31:13.832Z,99.90
2019-05-01T05:33:45.381Z,99.90
2019-05-01T05:36:17.100Z,99.90
2019-05-01T05:39:04.032Z,99.90
2019-05-01T05:41:34.379Z,99.90
2019-05-01T05:44:04.040Z,99.90
2019-05-01T05:46:33.239Z,99.90
2019-05-01T05:49:02.437Z,99.90
2019-05-01T05:51:55.753Z,99.90
2019-05-01T05:54:46.125Z,99.90
2019-05-01T05:57:32.956Z,99.90
2019-05-01T06:00:14.423Z,99.90
2019-05-01T06:03:12.485Z,99.90
2019-05-01T06:06:08.474Z,99.90
2019-05-01T06:08:41.614Z,99.90
2019-05-01T06:11:34.041Z,99.90
2019-05-01T06:14:21.489Z,99.90
2019-05-01T06:16:59.400Z,99.90
2019-05-01T06:19:49.657Z,99.90
2019-05-01T06:22:26.601Z,99.90
2019-05-01T06:25:04.192Z,99.90
2019-05-01T06:27:33.676Z,99.90
2019-05-01T06:30:06.565Z,99.90
2019-05-01T06:32:34.773Z,99.90
2019-05-01T06:35:04.627Z,99.90
2019-05-01T06:38:02.302Z,99.90
2019-05-01T06:40:43.223Z,99.90
2019-05-01T06:43:32.629Z,99.90
2019-05-01T06:46:27.198Z,99.90
2019-05-01T06:49:06.948Z,99.90
2019-05-01T06:51:48.065Z,99.90
2019-05-01T06:54:17.766Z,99.90
2019-05-01T06:56:48.829Z,99.90
2019-05-01T06:59:18.329Z,99.90
2019-05-01T07:01:48.440Z,99.90
2019-05-01T07:04:17.436Z,99.90
2019-05-01T07:06:46.448Z,99.90
2019-05-01T07:09:27.362Z,99.90
2019-05-01T07:11:52.278Z,99.90
2019-05-01T07:14:17.973Z,99.90
2019-05-01T07:16:47.094Z,99.90
2019-05-01T07:19:17.669Z,99.90
2019-05-01T07:21:47.013Z,99.90
2019-05-01T07:24:16.019Z,99.90
2019-05-01T07:26:48.111Z,99.90
2019-05-01T07:29:18.310Z,99.90
2019-05-01T07:31:47.327Z,99.90
2019-05-01T07:34:17.045Z,99.90
2019-05-01T07:36:50.104Z,99.90
2019-05-01T07:39:16.800Z,99.90
2019-05-01T07:41:46.373Z,99.90
2019-05-01T07:44:29.956Z,99.90
2019-05-01T07:47:21.085Z,99.90
2019-05-01T07:49:56.952Z,99.90
2019-05-01T07:52:27.564Z,99.90
2019-05-01T07:54:57.197Z,99.90
2019-05-01T07:57:26.809Z,99.90
2019-05-01T07:59:58.387Z,99.90
2019-05-01T08:02:31.250Z,99.90
2019-05-01T08:04:58.072Z,99.90
2019-05-01T08:07:27.911Z,95.40
2019-05-01T08:09:58.005Z,93.70
2019-05-01T08:12:26.948Z,93.90
2019-05-01T08:14:55.878Z,92.60
2019-05-01T08:17:26.721Z,89.60
2019-05-01T08:20:04.330Z,84.30
2019-05-01T08:22:37.390Z,82.50
2019-05-01T08:25:06.741Z,78.50
2019-05-01T08:27:50.982Z,78.40
2019-05-01T08:30:41.976Z,77.70
2019-05-01T08:33:24.711Z,77.30
2019-05-01T08:35:53.561Z,74.80
2019-05-01T08:38:22.812Z,71.30
2019-05-01T08:40:55.456Z,71.40
2019-05-01T08:43:22.461Z,70.70
2019-05-01T08:46:16.527Z,67.90
2019-05-01T08:48:54.800Z,71.10
2019-05-01T08:51:24.109Z,70.70
2019-05-01T08:53:57.868Z,69.40
2019-05-01T08:56:23.611Z,66.70
2019-05-01T08:58:52.557Z,67.80
2019-05-01T09:01:21.576Z,66.30
2019-05-01T09:03:54.187Z,64.90
2019-05-01T09:06:34.038Z,66.20
2019-05-01T09:08:52.345Z,63.40
2019-05-01T09:11:21.323Z,65.30
2019-05-01T09:13:50.570Z,64.30
2019-05-01T09:16:23.444Z,64.90
2019-05-01T09:18:50.561Z,62.60
2019-05-01T09:21:19.497Z,63.20
2019-05-01T09:23:51.527Z,60.00
2019-05-01T09:26:37.549Z,62.10
2019-05-01T09:29:11.034Z,60.90
2019-05-01T09:31:40.784Z,61.30
2019-05-01T09:34:13.872Z,60.30
2019-05-01T09:36:40.453Z,59.70
2019-05-01T09:39:11.941Z,58.70
2019-05-01T09:41:43.227Z,60.80
2019-05-01T09:44:12.150Z,61.90
2019-05-01T09:46:41.241Z,63.50
2019-05-01T09:49:14.263Z,61.80
2019-05-01T09:51:57.365Z,60.40
2019-05-01T09:54:33.653Z,63.00
2019-05-01T09:57:02.957Z,62.10
2019-05-01T09:59:31.973Z,57.30
2019-05-01T10:02:02.926Z,58.20
2019-05-01T10:04:32.596Z,56.20
2019-05-01T10:07:02.310Z,54.80
2019-05-01T10:09:31.519Z,52.80
2019-05-01T10:12:00.365Z,52.90
2019-05-01T10:14:31.582Z,54.60
2019-05-01T10:17:00.547Z,55.30
2019-05-01T10:19:29.792Z,56.00
2019-05-01T10:22:02.392Z,56.30
2019-05-01T10:24:31.975Z,54.10
2019-05-01T10:27:01.531Z,53.70
2019-05-01T10:29:49.661Z,57.30
2019-05-01T10:32:35.114Z,53.80
2019-05-01T10:35:42.489Z,53.70
2019-05-01T10:38:04.721Z,52.70
2019-05-01T10:40:34.668Z,53.70
2019-05-01T10:43:03.609Z,53.70
2019-05-01T10:45:32.474Z,55.10
2019-05-01T10:48:01.312Z,55.20
2019-05-01T10:50:30.465Z,55.80
2019-05-01T10:53:00.093Z,53.30
2019-05-01T10:55:28.946Z,53.80
2019-05-01T10:57:57.863Z,54.20
2019-05-01T11:00:26.885Z,53.60
2019-05-01T11:02:56.037Z,51.70
2019-05-01T11:05:25.546Z,52.90
2019-05-01T11:07:54.465Z,51.70
2019-05-01T11:10:23.734Z,51.90
2019-05-01T11:12:52.669Z,52.70
2019-05-01T11:15:21.715Z,53.30
2019-05-01T11:17:50.629Z,54.90
2019-05-01T11:20:19.496Z,53.30
2019-05-01T11:22:49.113Z,52.70
2019-05-01T11:25:20.052Z,52.10
2019-05-01T11:27:48.989Z,53.90
2019-05-01T11:30:18.657Z,52.90
2019-05-01T11:32:57.176Z,53.50
2019-05-01T11:35:48.374Z,52.20
2019-05-01T11:38:36.377Z,54.40
2019-05-01T11:41:10.707Z,53.70
2019-05-01T11:43:39.561Z,52.80
2019-05-01T11:46:08.580Z,52.10
2019-05-01T11:48:37.429Z,53.40
2019-05-01T11:51:06.553Z,53.30
2019-05-01T11:53:35.481Z,52.90
2019-05-01T11:56:04.454Z,52.70
2019-05-01T11:58:33.378Z,53.70
2019-05-01T12:01:03.687Z,55.50
2019-05-01T12:03:32.655Z,52.30
2019-05-01T12:06:01.627Z,51.40
2019-05-01T12:08:30.460Z,52.30
2019-05-01T12:11:00.347Z,52.50
2019-05-01T12:13:42.656Z,54.40
2019-05-01T12:16:06.605Z,51.60
2019-05-01T12:18:35.440Z,55.40
2019-05-01T12:21:04.393Z,53.80
2019-05-01T12:23:33.240Z,53.40
2019-05-01T12:26:02.474Z,52.20
2019-05-01T12:28:31.653Z,53.80
2019-05-01T12:31:00.497Z,54.20
2019-05-01T12:33:29.352Z,53.60
2019-05-01T12:35:59.853Z,52.40
2019-05-01T12:38:28.801Z,53.30
2019-05-01T12:41:15.740Z,54.70
2019-05-01T12:43:44.648Z,52.80
2019-05-01T12:46:32.573Z,54.30
2019-05-01T12:49:01.903Z,54.70
2019-05-01T12:51:30.829Z,55.50
2019-05-01T12:54:07.174Z,54.90
2019-05-01T12:56:40.681Z,54.40
2019-05-01T12:59:09.533Z,53.10
2019-05-01T13:01:38.386Z,53.90
2019-05-01T13:04:07.295Z,54.30
2019-05-01T13:06:48.341Z,53.90
2019-05-01T13:09:08.104Z,53.20
2019-05-01T13:11:37.033Z,53.80
2019-05-01T13:14:05.970Z,52.40
2019-05-01T13:16:34.905Z,54.10
2019-05-01T13:19:04.701Z,54.40
2019-05-01T13:21:33.540Z,54.40
2019-05-01T13:24:02.481Z,56.00
2019-05-01T13:26:36.984Z,54.40
2019-05-01T13:29:34.189Z,55.40
2019-05-01T13:32:08.845Z,56.70
2019-05-01T13:34:38.081Z,55.50
2019-05-01T13:37:07.362Z,55.60
2019-05-01T13:39:36.458Z,55.80
2019-05-01T13:42:08.869Z,54.70
2019-05-01T13:44:37.101Z,56.00
2019-05-01T13:47:06.086Z,54.00
2019-05-01T13:49:35.062Z,55.60
2019-05-01T13:52:04.350Z,55.90
2019-05-01T13:54:33.241Z,55.40
2019-05-01T13:57:02.577Z,56.00
2019-05-01T13:59:31.561Z,56.20
2019-05-01T14:02:00.589Z,55.90
2019-05-01T14:04:29.920Z,56.30
2019-05-01T14:06:58.914Z,55.00
2019-05-01T14:09:31.240Z,56.60
2019-05-01T14:12:00.445Z,56.10
2019-05-01T14:14:29.432Z,55.60
2019-05-01T14:16:59.034Z,56.40
2019-05-01T14:19:28.518Z,57.00
2019-05-01T14:22:15.289Z,56.40
2019-05-01T14:24:48.753Z,56.40
2019-05-01T14:27:17.960Z,55.90
2019-05-01T14:29:47.006Z,55.30
2019-05-01T14:32:15.985Z,55.50
2019-05-01T14:34:45.109Z,56.20
2019-05-01T14:37:14.083Z,56.50
2019-05-01T14:39:43.302Z,57.00
2019-05-01T14:42:12.626Z,56.30
2019-05-01T14:44:41.561Z,56.90
2019-05-01T14:47:10.619Z,55.80
2019-05-01T14:49:39.586Z,56.20
2019-05-01T14:52:08.926Z,55.90
2019-05-01T14:54:37.835Z,57.60
2019-05-01T14:57:06.996Z,56.90
2019-05-01T14:59:35.852Z,57.90
2019-05-01T15:02:05.233Z,57.40
2019-05-01T15:04:34.149Z,57.20
2019-05-01T15:07:03.179Z,57.40
2019-05-01T15:09:32.469Z,57.50
2019-05-01T15:12:01.616Z,56.30
2019-05-01T15:14:48.001Z,58.20
2019-05-01T15:17:45.025Z,57.90
2019-05-01T15:20:14.131Z,55.80
2019-05-01T15:22:43.081Z,57.40
2019-05-01T15:25:12.077Z,58.70
2019-05-01T15:27:40.918Z,59.20
2019-05-01T15:30:10.098Z,58.90
2019-05-01T15:32:39.012Z,58.30
2019-05-01T15:35:08.054Z,57.10
2019-05-01T15:37:36.880Z,57.60
2019-05-01T15:40:31.977Z,58.00
2019-05-01T15:43:20.213Z,57.50
2019-05-01T15:45:55.337Z,57.20
2019-05-01T15:48:24.328Z,58.50
2019-05-01T15:50:53.550Z,59.20
2019-05-01T15:53:22.762Z,57.10
2019-05-01T15:55:51.668Z,57.20
2019-05-01T15:58:20.508Z,59.20
2019-05-01T16:00:50.037Z,59.10
2019-05-01T16:03:19.328Z,57.50
2019-05-01T16:05:48.280Z,57.10
2019-05-01T16:08:17.309Z,58.30
2019-05-01T16:10:53.705Z,57.00
2019-05-01T16:13:22.642Z,58.30
2019-05-01T16:15:51.882Z,58.80
2019-05-01T16:18:21.074Z,59.30
2019-05-01T16:20:49.993Z,58.30
2019-05-01T16:23:18.838Z,59.00
2019-05-01T16:25:47.685Z,59.80
2019-05-01T16:28:16.844Z,58.80
2019-05-01T16:30:45.777Z,61.00
2019-05-01T16:33:15.541Z,60.60
2019-05-01T16:35:44.771Z,58.60
2019-05-01T16:38:23.055Z,61.20
2019-05-01T16:41:01.957Z,60.40
2019-05-01T16:43:31.512Z,58.30
2019-05-01T16:46:00.477Z,58.50
2019-05-01T16:48:29.396Z,58.80
2019-05-01T16:50:58.268Z,59.60
2019-05-01T16:53:27.365Z,59.50
2019-05-01T16:55:56.301Z,61.00
2019-05-01T16:58:25.213Z,62.00
2019-05-01T17:01:07.308Z,61.50
2019-05-01T17:03:54.446Z,61.50
2019-05-01T17:06:48.557Z,61.60
2019-05-01T17:09:35.728Z,63.50
2019-05-01T17:12:05.238Z,63.20
2019-05-01T17:14:34.733Z,59.40
2019-05-01T17:17:05.721Z,58.60
2019-05-01T17:19:34.641Z,61.00
2019-05-01T17:22:03.914Z,60.00
2019-05-01T17:24:32.754Z,60.20
2019-05-01T17:27:01.685Z,60.20
2019-05-01T17:29:30.602Z,59.00
2019-05-01T17:32:00.073Z,59.50
2019-05-01T17:34:30.642Z,60.70
2019-05-01T17:36:59.564Z,59.90
2019-05-01T17:39:28.489Z,61.20
2019-05-01T17:42:01.583Z,61.20
2019-05-01T17:44:28.040Z,62.10
2019-05-01T17:46:56.892Z,62.00
2019-05-01T17:49:26.423Z,63.10
2019-05-01T17:51:55.302Z,63.70
2019-05-01T17:54:24.510Z,64.00
2019-05-01T17:56:55.576Z,65.00
2019-05-01T17:59:24.269Z,67.20
2019-05-01T18:02:05.357Z,67.20
2019-05-01T18:04:51.386Z,71.20
2019-05-01T18:07:20.348Z,74.90
2019-05-01T18:09:51.496Z,82.90
2019-05-01T18:12:23.311Z,88.50
2019-05-01T18:14:50.982Z,93.60
2019-05-01T18:17:26.110Z,99.90
2019-05-01T18:19:55.309Z,99.90
2019-05-01T18:22:42.531Z,99.90
2019-05-01T18:25:23.714Z,93.90
2019-05-01T18:28:14.736Z,94.50
2019-05-01T18:30:43.964Z,94.80
2019-05-01T18:33:13.273Z,93.00
2019-05-01T18:35:44.960Z,94.50
2019-05-01T18:38:31.905Z,95.10
2019-05-01T18:41:11.913Z,96.40
2019-05-01T18:43:41.145Z,96.90
2019-05-01T18:46:12.532Z,99.00
2019-05-01T18:48:42.302Z,99.90
2019-05-01T18:51:11.337Z,99.90
2019-05-01T18:53:40.801Z,99.90
2019-05-01T18:56:10.314Z,99.90
2019-05-01T18:58:39.148Z,99.90
2019-05-01T19:01:09.200Z,99.90
2019-05-01T19:03:42.488Z,99.90
2019-05-01T19:06:10.171Z,99.90
2019-05-01T19:08:39.113Z,99.90
2019-05-01T19:11:12.732Z,99.90
2019-05-01T19:13:39.885Z,99.90
2019-05-01T19:16:09.891Z,99.90
2019-05-01T19:18:39.467Z,99.90
2019-05-01T19:21:08.969Z,99.90
2019-05-01T19:23:38.343Z,99.90
2019-05-01T19:26:08.583Z,99.90
2019-05-01T19:28:37.577Z,99.90
2019-05-01T19:31:06.869Z,99.90
2019-05-01T19:33:35.895Z,99.90
2019-05-01T19:36:08.061Z,99.90
2019-05-01T19:38:36.990Z,99.90
2019-05-01T19:41:08.439Z,99.90
2019-05-01T19:43:40.469Z,99.90
2019-05-01T19:46:08.409Z,99.90
2019-05-01T19:48:37.598Z,99.90
2019-05-01T19:51:07.224Z,99.90
2019-05-01T19:53:36.310Z,99.90
2019-05-01T19:56:05.517Z,99.90
2019-05-01T19:58:34.842Z,99.90
2019-05-01T20:01:06.032Z,99.90
2019-05-01T20:03:36.855Z,99.90
2019-05-01T20:06:08.049Z,99.90
2019-05-01T20:08:36.744Z,99.90
2019-05-01T20:11:09.178Z,99.90
2019-05-01T20:13:37.165Z,99.90
2019-05-01T20:16:08.254Z,99.90
2019-05-01T20:18:37.505Z,99.90
2019-05-01T20:21:06.794Z,99.90
2019-05-01T20:23:35.773Z,99.90
2019-05-01T20:26:04.822Z,99.90
2019-05-01T20:28:33.785Z,99.90
2019-05-01T20:31:02.837Z,99.90
2019-05-01T20:33:33.390Z,99.90
2019-05-01T20:36:05.197Z,99.90
2019-05-01T20:38:33.556Z,99.90
2019-05-01T20:41:02.502Z,99.90
2019-05-01T20:43:33.520Z,99.90
2019-05-01T20:46:02.256Z,99.90
2019-05-01T20:48:31.172Z,99.90
2019-05-01T20:51:00.368Z,99.90
2019-05-01T20:53:29.970Z,99.90
2019-05-01T20:56:08.580Z,99.90
2019-05-01T20:58:37.885Z,99.90
2019-05-01T21:01:06.992Z,99.90
2019-05-01T21:03:37.871Z,99.90
2019-05-01T21:06:18.959Z,99.90
2019-05-01T21:09:08.259Z,99.90
2019-05-01T21:11:42.229Z,99.90
2019-05-01T21:14:20.072Z,99.90
2019-05-01T21:16:46.007Z,99.90
2019-05-01T21:19:15.065Z,99.90
2019-05-01T21:21:43.987Z,99.90
2019-05-01T21:24:14.021Z,99.90
2019-05-01T21:26:43.457Z,99.90
2019-05-01T21:29:14.056Z,99.90
2019-05-01T21:31:44.036Z,99.90
2019-05-01T21:34:14.409Z,99.90
2019-05-01T21:36:47.437Z,99.90
2019-05-01T21:39:15.601Z,99.90
2019-05-01T21:41:45.364Z,99.90
2019-05-01T21:44:14.301Z,99.90
2019-05-01T21:46:43.306Z,99.90
2019-05-01T21:49:12.968Z,99.90
2019-05-01T21:51:46.046Z,99.90
2019-05-01T21:54:16.036Z,99.90
2019-05-01T21:56:43.632Z,99.90
2019-05-01T21:59:12.565Z,99.90
2019-05-01T22:01:41.736Z,99.90
2019-05-01T22:04:10.678Z,99.90
2019-05-01T22:06:39.720Z,99.90
2019-05-01T22:09:15.301Z,99.90
2019-05-01T22:11:45.532Z,99.90
2019-05-01T22:14:21.338Z,99.90
2019-05-01T22:16:53.175Z,99.90
2019-05-01T22:19:21.440Z,99.90
2019-05-01T22:22:12.825Z,99.90
2019-05-01T22:25:00.452Z,99.90
2019-05-01T22:27:52.163Z,99.90
2019-05-01T22:30:35.997Z,99.90
2019-05-01T22:33:05.596Z,99.90
2019-05-01T22:35:38.642Z,99.90
2019-05-01T22:38:08.689Z,99.90
2019-05-01T22:41:06.051Z,99.90
2019-05-01T22:43:26.440Z,99.90
2019-05-01T22:45:56.348Z,99.90
2019-05-01T22:48:26.572Z,99.90
2019-05-01T22:50:59.329Z,99.90
2019-05-01T22:53:28.554Z,99.90
2019-05-01T22:56:02.111Z,99.90
2019-05-01T22:58:27.969Z,99.90
2019-05-01T23:00:58.295Z,99.90
2019-05-01T23:03:41.128Z,99.90
2019-05-01T23:06:10.296Z,99.90
2019-05-01T23:08:39.208Z,99.90
2019-05-01T23:11:19.125Z,99.90
2019-05-01T23:13:38.876Z,99.90
2019-05-01T23:16:07.960Z,99.90
2019-05-01T23:18:36.795Z,99.90
2019-05-01T23:21:09.757Z,99.90
2019-05-01T23:23:36.944Z,99.90
2019-05-01T23:26:05.948Z,99.90
2019-05-01T23:28:39.896Z,99.90
2019-05-01T23:31:05.994Z,99.90
2019-05-01T23:33:35.181Z,99.90
2019-05-01T23:36:04.229Z,99.90
2019-05-01T23:38:33.369Z,99.90
2019-05-01T23:41:02.296Z,99.90
2019-05-01T23:43:31.284Z,99.90
2019-05-01T23:46:00.575Z,99.90
2019-05-01T23:48:29.416Z,99.90
2019-05-01T23:50:59.178Z,99.90
2019-05-01T23:53:28.102Z,99.90
2019-05-01T23:56:00.187Z,99.90
2019-05-01T23:58:28.185Z,99.90
